Time;durP1;ratioP1;P1;durP2;ratioP2;P2;SDS_P1;SDS_P2;PMS_P1;PMS_P2;Temp;Humidity;BMP_temperature;BMP_pressure;BME280_temperature;BME280_humidity;BME280_pressure;Samples;Min_cycle;Max_cycle;Signal;HPM_P1;HPM_P2
2022/10/09 00:00:44;;;;;;;8.47;5.60;;;11.30;1.00;;;;;;5011473;28;20180;-66
2022/10/09 00:03:11;;;;;;;13.40;5.83;;;11.30;1.00;;;;;;5012758;28;20399;-66
2022/10/09 00:05:37;;;;;;;8.80;4.20;;;11.30;1.00;;;;;;5012551;28;20409;-66
2022/10/09 00:08:03;;;;;;;7.60;5.73;;;11.20;1.00;;;;;;5012762;28;20415;-66
2022/10/09 00:10:29;;;;;;;14.50;6.67;;;11.20;1.00;;;;;;5012141;28;20442;-65
2022/10/09 00:12:55;;;;;;;6.87;5.07;;;11.20;1.00;;;;;;5012761;28;20203;-64
2022/10/09 00:15:22;;;;;;;7.10;5.07;;;11.30;1.00;;;;;;5012173;28;20541;-65
2022/10/09 00:17:47;;;;;;;7.43;5.00;;;11.20;1.00;;;;;;5013028;28;20674;-65
2022/10/09 00:20:13;;;;;;;7.63;4.77;;;11.30;1.00;;;;;;5012147;28;20563;-65
2022/10/09 00:22:39;;;;;;;6.60;4.73;;;11.20;1.00;;;;;;5011983;28;20280;-65
2022/10/09 00:25:05;;;;;;;4.93;4.10;;;11.30;1.00;;;;;;5011650;28;20180;-66
2022/10/09 00:27:31;;;;;;;15.30;4.70;;;11.30;1.00;;;;;;5011949;28;20587;-66
2022/10/09 00:29:57;;;;;;;6.93;4.40;;;11.20;1.00;;;;;;5011497;28;20450;-66
2022/10/09 00:32:22;;;;;;;5.33;4.30;;;11.20;1.00;;;;;;5011668;28;20223;-66
2022/10/09 00:34:49;;;;;;;7.47;4.67;;;11.20;1.00;;;;;;5011852;28;20195;-66
2022/10/09 00:37:15;;;;;;;8.47;4.63;;;11.20;1.00;;;;;;5011953;28;20212;-65
2022/10/09 00:39:40;;;;;;;6.83;4.80;;;11.00;1.00;;;;;;5011743;28;20413;-66
2022/10/09 00:42:11;;;;;;;6.00;4.97;;;10.80;99.90;;;;;;5010275;28;20319;-66
2022/10/09 00:44:58;;;;;;;7.87;5.37;;;10.60;99.90;;;;;;5011464;28;20627;-66
2022/10/09 00:47:46;;;;;;;8.60;6.50;;;10.60;99.90;;;;;;5012076;28;20959;-66
2022/10/09 00:50:21;;;;;;;10.50;6.03;;;10.60;99.90;;;;;;5011209;28;20514;-66
2022/10/09 00:52:51;;;;;;;9.63;6.00;;;10.70;1.00;;;;;;5011438;28;20513;-66
2022/10/09 00:55:17;;;;;;;10.60;6.00;;;10.70;1.00;;;;;;5011145;28;20466;-66
2022/10/09 00:57:43;;;;;;;9.43;6.13;;;10.80;1.00;;;;;;5011909;28;20408;-66
2022/10/09 01:00:11;;;;;;;11.43;6.20;;;10.60;99.90;;;;;;5011542;28;20411;-66
2022/10/09 01:02:37;;;;;;;11.43;5.83;;;10.70;1.00;;;;;;5031206;28;20187;-66
2022/10/09 01:05:04;;;;;;;15.03;6.80;;;10.70;99.90;;;;;;5031049;28;20403;-66
2022/10/09 01:07:58;;;;;;;7.37;5.57;;;10.90;1.00;;;;;;5031714;28;20191;-66
2022/10/09 01:10:34;;;;;;;9.73;7.30;;;10.80;1.00;;;;;;5030803;28;20409;-66
2022/10/09 01:13:20;;;;;;;8.87;6.00;;;10.80;1.00;;;;;;5031036;28;20536;-66
2022/10/09 01:16:10;;;;;;;6.77;5.20;;;10.80;1.00;;;;;;5030733;28;20981;-65
2022/10/09 01:18:43;;;;;;;7.00;5.17;;;10.80;1.00;;;;;;5031388;28;20402;-66
2022/10/09 01:21:24;;;;;;;10.20;5.67;;;10.80;1.00;;;;;;5030359;28;20426;-66
2022/10/09 01:24:04;;;;;;;7.80;6.20;;;10.80;1.00;;;;;;5030804;28;20426;-66
2022/10/09 01:27:07;;;;;;;8.27;5.47;;;10.80;1.00;;;;;;5030499;28;20406;-66
2022/10/09 01:30:00;;;;;;;17.93;6.73;;;10.80;1.00;;;;;;5030172;28;20402;-66
2022/10/09 01:32:33;;;;;;;8.70;6.20;;;10.80;1.00;;;;;;5021659;28;20434;-66
2022/10/09 01:35:00;;;;;;;9.57;6.10;;;10.70;99.90;;;;;;5030119;28;20464;-66
2022/10/09 01:37:29;;;;;;;8.83;5.27;;;10.50;1.00;;;;;;5029616;28;20405;-66
2022/10/09 01:39:56;;;;;;;10.20;6.30;;;10.50;1.00;;;;;;5030268;28;20452;-65
2022/10/09 01:42:25;;;;;;;7.17;5.83;;;10.50;1.00;;;;;;5028357;28;20505;-65
2022/10/09 01:44:50;;;;;;;8.73;6.07;;;10.60;1.00;;;;;;5030012;28;21011;-65
2022/10/09 01:47:19;;;;;;;13.77;5.40;;;10.60;1.00;;;;;;5030245;28;20417;-65
2022/10/09 01:49:58;;;;;;;6.67;5.90;;;10.60;1.00;;;;;;5029939;28;20618;-65
2022/10/09 01:52:42;;;;;;;5.73;5.13;;;10.60;99.90;;;;;;5029493;28;20477;-66
2022/10/09 01:55:19;;;;;;;8.13;5.67;;;10.60;99.90;;;;;;5029911;28;20544;-66
2022/10/09 01:58:04;;;;;;;11.23;6.53;;;10.60;99.90;;;;;;5030406;28;20409;-66
2022/10/09 02:00:34;;;;;;;7.93;6.00;;;10.60;99.90;;;;;;5028590;28;20414;-66
2022/10/09 02:03:03;;;;;;;13.70;7.37;;;10.40;1.00;;;;;;5029999;28;20429;-66
2022/10/09 02:05:30;;;;;;;9.37;6.13;;;10.40;1.00;;;;;;5029605;28;20497;-66
2022/10/09 02:07:58;;;;;;;6.87;5.73;;;10.50;1.00;;;;;;5029961;28;20536;-65
2022/10/09 02:10:24;;;;;;;7.43;6.00;;;10.50;99.90;;;;;;5029107;28;20429;-66
2022/10/09 02:12:56;;;;;;;6.10;5.50;;;10.50;1.00;;;;;;5029990;28;20421;-66
2022/10/09 02:15:29;;;;;;;6.70;5.40;;;10.40;1.00;;;;;;5029548;28;20454;-66
2022/10/09 02:18:02;;;;;;;13.60;5.50;;;10.40;1.00;;;;;;5030069;28;20429;-66
2022/10/09 02:20:33;;;;;;;11.10;6.00;;;10.40;1.00;;;;;;5029181;28;20410;-65
2022/10/09 02:23:03;;;;;;;14.53;5.80;;;10.40;1.00;;;;;;5029694;28;20452;-66
2022/10/09 02:25:29;;;;;;;9.27;6.83;;;10.40;1.00;;;;;;5029447;28;20937;-66
2022/10/09 02:27:55;;;;;;;6.17;5.50;;;10.40;58.80;;;;;;5029721;28;20398;-65
2022/10/09 02:30:25;;;;;;;10.40;5.70;;;10.40;99.90;;;;;;5028877;28;20486;-66
2022/10/09 02:32:55;;;;;;;7.03;5.40;;;10.40;99.90;;;;;;5029159;28;20426;-65
2022/10/09 02:35:21;;;;;;;11.10;6.00;;;10.40;99.90;;;;;;5029296;28;20460;-65
2022/10/09 02:37:48;;;;;;;5.93;5.33;;;10.30;99.90;;;;;;5029632;28;20493;-65
2022/10/09 02:40:14;;;;;;;6.07;5.33;;;10.30;99.90;;;;;;5029339;28;20178;-65
2022/10/09 02:42:40;;;;;;;7.67;5.13;;;10.30;99.90;;;;;;5027698;28;20454;-65
2022/10/09 02:45:07;;;;;;;6.80;5.20;;;10.30;1.00;;;;;;5029186;28;20406;-65
2022/10/09 02:47:33;;;;;;;5.83;5.00;;;10.20;1.00;;;;;;5029184;28;20175;-65
2022/10/09 02:49:58;;;;;;;5.70;4.97;;;10.20;1.00;;;;;;5032728;28;20471;-66
2022/10/09 02:52:24;;;;;;;6.53;5.60;;;10.30;99.90;;;;;;5032896;28;20206;-66
2022/10/09 02:54:49;;;;;;;6.07;5.47;;;10.20;99.90;;;;;;5033577;28;20199;-65
2022/10/09 02:57:15;;;;;;;7.20;5.23;;;10.10;1.00;;;;;;5033517;28;20479;-66
2022/10/09 02:59:41;;;;;;;9.23;6.03;;;9.80;99.90;;;;;;5033008;28;20178;-66
2022/10/09 03:02:07;;;;;;;8.67;5.60;;;10.00;94.00;;;;;;5032807;28;20191;-66
2022/10/09 03:04:32;;;;;;;8.43;6.00;;;10.10;1.00;;;;;;5033334;28;20224;-66
2022/10/09 03:06:58;;;;;;;7.27;5.97;;;10.20;1.00;;;;;;5033342;28;20271;-66
2022/10/09 03:09:24;;;;;;;8.30;6.10;;;10.20;1.00;;;;;;5033104;28;20625;-65
2022/10/09 03:11:49;;;;;;;11.83;6.90;;;10.20;1.00;;;;;;5032671;28;20256;-65
2022/10/09 03:14:15;;;;;;;10.90;6.63;;;10.20;1.00;;;;;;5032493;28;20256;-66
2022/10/09 03:16:41;;;;;;;8.17;6.60;;;10.20;1.00;;;;;;5033028;28;20167;-65
2022/10/09 03:19:06;;;;;;;10.40;7.60;;;10.20;1.00;;;;;;5032741;28;20179;-65
2022/10/09 03:21:32;;;;;;;9.13;5.97;;;10.20;1.00;;;;;;5031921;28;20665;-65
2022/10/09 03:23:58;;;;;;;7.13;6.17;;;10.20;99.90;;;;;;5032544;28;20679;-65
2022/10/09 03:26:25;;;;;;;7.70;6.13;;;10.20;1.00;;;;;;5032620;28;20163;-65
2022/10/09 03:28:53;;;;;;;10.23;6.67;;;10.20;1.00;;;;;;5032605;28;20179;-65
2022/10/09 03:31:22;;;;;;;10.70;5.90;;;10.20;1.00;;;;;;5031585;28;20430;-65
2022/10/09 03:33:47;;;;;;;7.70;6.40;;;10.20;1.00;;;;;;5032553;28;20501;-65
2022/10/09 03:36:13;;;;;;;9.03;6.43;;;10.10;1.00;;;;;;5032649;28;20494;-65
2022/10/09 03:38:39;;;;;;;8.60;7.20;;;10.10;1.00;;;;;;5032862;28;20265;-65
2022/10/09 03:41:06;;;;;;;7.53;6.67;;;10.00;1.00;;;;;;5031800;28;20271;-65
2022/10/09 03:43:32;;;;;;;9.30;6.70;;;9.80;99.90;;;;;;5031340;28;20182;-65
2022/10/09 03:45:58;;;;;;;8.53;7.17;;;9.90;99.90;;;;;;5031836;28;20514;-65
2022/10/09 03:48:24;;;;;;;7.87;6.20;;;9.90;99.90;;;;;;5032700;28;20493;-65
2022/10/09 03:50:50;;;;;;;9.90;7.90;;;10.00;99.90;;;;;;5014129;28;20180;-65
2022/10/09 03:53:16;;;;;;;8.67;7.30;;;9.90;99.90;;;;;;5032559;28;20170;-65
2022/10/09 03:55:42;;;;;;;10.70;7.10;;;10.00;99.90;;;;;;5032173;28;20199;-65
2022/10/09 03:58:08;;;;;;;7.83;7.07;;;9.80;99.90;;;;;;5032318;28;20452;-65
2022/10/09 04:00:34;;;;;;;7.43;6.17;;;9.80;99.90;;;;;;5030459;28;20509;-65
2022/10/09 04:03:00;;;;;;;10.80;5.83;;;9.60;99.90;;;;;;5032385;28;20456;-65
2022/10/09 04:05:26;;;;;;;10.50;5.87;;;9.60;99.90;;;;;;5032128;28;20410;-65
2022/10/09 04:07:51;;;;;;;6.70;5.93;;;9.50;99.90;;;;;;5032132;28;20575;-65
2022/10/09 04:10:17;;;;;;;9.10;5.97;;;9.50;99.90;;;;;;5031672;28;20492;-65
2022/10/09 04:12:43;;;;;;;12.03;6.73;;;9.60;99.90;;;;;;5031836;28;20226;-64
2022/10/09 04:15:10;;;;;;;8.97;6.30;;;9.60;99.90;;;;;;5031752;28;20258;-65
2022/10/09 04:17:36;;;;;;;8.30;6.90;;;9.60;99.90;;;;;;5032063;28;20397;-64
2022/10/09 04:20:03;;;;;;;7.43;5.80;;;9.60;99.90;;;;;;5032017;28;20891;-64
2022/10/09 04:22:28;;;;;;;11.80;7.83;;;9.70;99.90;;;;;;5031364;28;20448;-64
2022/10/09 04:24:54;;;;;;;8.93;7.03;;;9.60;96.10;;;;;;5031541;28;20406;-65
2022/10/09 04:27:20;;;;;;;6.97;6.27;;;9.60;99.90;;;;;;5031700;28;20172;-65
2022/10/09 04:29:46;;;;;;;10.70;7.07;;;9.50;32.50;;;;;;5031363;28;20182;-64
2022/10/09 04:32:11;;;;;;;9.13;6.63;;;9.50;99.90;;;;;;5030970;28;20191;-64
2022/10/09 04:34:37;;;;;;;11.23;6.30;;;9.50;99.90;;;;;;5031704;28;20195;-64
2022/10/09 04:37:03;;;;;;;8.87;6.63;;;9.30;99.90;;;;;;5031868;28;20176;-64
2022/10/09 04:39:28;;;;;;;8.83;6.60;;;9.50;99.90;;;;;;5031542;28;20168;-65
2022/10/09 04:41:54;;;;;;;10.50;8.73;;;9.50;99.90;;;;;;5029800;28;20226;-65
2022/10/09 04:44:20;;;;;;;12.87;6.63;;;9.50;65.20;;;;;;5030898;28;20220;-65
2022/10/09 04:46:45;;;;;;;10.73;7.73;;;9.50;71.90;;;;;;5031818;28;20439;-65
2022/10/09 04:49:12;;;;;;;8.90;6.70;;;9.60;54.00;;;;;;5031453;28;20168;-65
2022/10/09 04:51:38;;;;;;;18.83;8.50;;;9.60;14.10;;;;;;5031254;28;20207;-64
2022/10/09 04:54:03;;;;;;;12.83;6.27;;;9.60;1.00;;;;;;5031291;28;20892;-64
2022/10/09 04:56:29;;;;;;;10.77;7.10;;;9.50;84.90;;;;;;5031891;28;20175;-64
2022/10/09 04:58:55;;;;;;;7.77;6.60;;;9.40;45.90;;;;;;5031237;28;20633;-64
2022/10/09 05:01:24;;;;;;;11.10;7.50;;;9.20;99.90;;;;;;5030379;28;20204;-67
2022/10/09 05:03:50;;;;;;;12.37;7.50;;;9.20;99.90;;;;;;5031331;28;20262;-65
2022/10/09 05:06:17;;;;;;;10.50;8.13;;;9.30;99.90;;;;;;5031231;28;20881;-64
2022/10/09 05:08:43;;;;;;;13.80;7.33;;;9.30;99.90;;;;;;5031137;28;20398;-65
2022/10/09 05:11:14;;;;;;;28.00;9.97;;;9.30;99.90;;;;;;5030263;28;20446;-65
2022/10/09 05:13:44;;;;;;;15.20;7.77;;;9.40;99.90;;;;;;5030976;28;20648;-65
2022/10/09 05:16:12;;;;;;;12.77;7.10;;;9.30;99.90;;;;;;5030581;28;20801;-65
2022/10/09 05:18:47;;;;;;;15.70;7.57;;;9.40;99.90;;;;;;5031220;28;20402;-64
2022/10/09 05:21:13;;;;;;;14.40;8.10;;;9.40;99.90;;;;;;5025406;28;20536;-65
2022/10/09 05:23:39;;;;;;;10.60;7.80;;;9.40;99.90;;;;;;5014676;28;20411;-65
2022/10/09 05:26:08;;;;;;;14.20;9.20;;;10.10;1.00;;;;;;5013139;28;20916;-64
2022/10/09 05:28:34;;;;;;;10.57;7.53;;;11.10;1.00;;;;;;5029289;28;20175;-65
2022/10/09 05:31:05;;;;;;;10.83;7.10;;;10.40;1.00;;;;;;5013185;28;20477;-65
2022/10/09 05:33:31;;;;;;;9.90;6.73;;;10.00;1.00;;;;;;5024646;28;20437;-66
2022/10/09 05:36:02;;;;;;;10.10;7.00;;;9.70;12.90;;;;;;5025688;28;20487;-64
2022/10/09 05:38:28;;;;;;;9.70;7.67;;;9.60;99.90;;;;;;5031421;28;20458;-65
2022/10/09 05:40:57;;;;;;;16.37;7.50;;;9.40;99.90;;;;;;5029815;28;20434;-65
2022/10/09 05:43:24;;;;;;;44.57;10.70;;;9.40;1.00;;;;;;5026387;28;20468;-66
2022/10/09 05:45:50;;;;;;;15.83;8.30;;;9.50;99.90;;;;;;5014980;28;20456;-66
2022/10/09 05:48:16;;;;;;;12.43;7.40;;;9.50;99.90;;;;;;5014757;28;20821;-65
2022/10/09 05:50:42;;;;;;;9.13;7.60;;;9.40;99.90;;;;;;5020429;28;20427;-65
2022/10/09 05:53:07;;;;;;;9.00;7.10;;;9.40;1.00;;;;;;5023887;28;20442;-65
2022/10/09 05:55:33;;;;;;;13.20;7.70;;;9.40;1.00;;;;;;5025886;28;20203;-65
2022/10/09 05:57:59;;;;;;;13.27;7.60;;;10.10;1.00;;;;;;5023984;28;20250;-64
2022/10/09 06:00:24;;;;;;;18.13;7.40;;;10.20;99.90;;;;;;5025831;28;20176;-65
2022/10/09 06:02:50;;;;;;;11.73;7.10;;;9.80;17.50;;;;;;5025492;28;20195;-65
2022/10/09 06:05:16;;;;;;;7.97;6.60;;;9.60;99.90;;;;;;5026791;28;20245;-64
2022/10/09 06:07:41;;;;;;;10.73;7.43;;;9.50;99.90;;;;;;5025771;28;20183;-66
2022/10/09 06:10:07;;;;;;;9.00;6.07;;;9.50;1.00;;;;;;5025671;28;20298;-65
2022/10/09 06:12:33;;;;;;;9.60;7.30;;;9.50;1.00;;;;;;5023025;28;20668;-66
2022/10/09 06:14:59;;;;;;;13.90;7.40;;;9.30;1.00;;;;;;5025368;28;20463;-63
2022/10/09 06:17:24;;;;;;;12.47;6.53;;;9.40;1.00;;;;;;5025243;28;20182;-65
2022/10/09 06:19:50;;;;;;;12.13;7.90;;;9.50;1.00;;;;;;5013303;28;20187;-66
2022/10/09 06:22:16;;;;;;;10.97;7.50;;;9.60;1.00;;;;;;5014663;28;20274;-66
2022/10/09 06:24:41;;;;;;;11.70;7.53;;;9.80;99.90;;;;;;5019982;28;20183;-65
2022/10/09 06:27:07;;;;;;;11.83;7.33;;;9.80;99.90;;;;;;5013236;28;20234;-66
2022/10/09 06:29:33;;;;;;;11.13;6.77;;;10.00;99.90;;;;;;5011733;28;20568;-66
2022/10/09 06:31:58;;;;;;;9.13;6.60;;;10.40;1.00;;;;;;5024754;28;20565;-66
2022/10/09 06:34:24;;;;;;;11.30;8.27;;;10.40;99.90;;;;;;5016821;28;20287;-65
2022/10/09 06:36:50;;;;;;;10.50;7.77;;;10.20;99.90;;;;;;5015610;28;20607;-66
2022/10/09 06:39:15;;;;;;;14.87;7.50;;;10.10;1.00;;;;;;5026476;28;20176;-66
2022/10/09 06:41:41;;;;;;;8.50;7.00;;;9.90;1.00;;;;;;5025108;28;20203;-66
2022/10/09 06:44:11;;;;;;;10.40;7.37;;;9.60;99.90;;;;;;5025282;28;20235;-65
2022/10/09 06:46:40;;;;;;;10.30;6.87;;;9.20;1.00;;;;;;5026391;28;20194;-67
2022/10/09 06:49:07;;;;;;;13.37;8.10;;;9.30;1.00;;;;;;5025026;28;20473;-67
2022/10/09 06:51:33;;;;;;;13.40;8.83;;;9.50;1.00;;;;;;5023812;28;20451;-67
2022/10/09 06:54:01;;;;;;;9.17;7.53;;;9.30;1.00;;;;;;5024543;28;20529;-67
2022/10/09 06:56:29;;;;;;;12.30;7.57;;;8.80;1.00;;;;;;5021947;28;20407;-66
2022/10/09 06:58:57;;;;;;;13.67;8.63;;;8.50;1.00;;;;;;5009822;28;20395;-66
2022/10/09 07:01:30;;;;;;;11.80;8.23;;;8.50;1.00;;;;;;5016768;28;20464;-67
2022/10/09 07:04:13;;;;;;;10.40;7.77;;;8.70;1.00;;;;;;5020298;28;20418;-67
2022/10/09 07:06:42;;;;;;;10.80;8.97;;;8.80;1.00;;;;;;5014752;28;20411;-65
2022/10/09 07:09:11;;;;;;;16.90;8.57;;;8.80;1.00;;;;;;5009540;28;20522;-65
2022/10/09 07:11:41;;;;;;;13.30;10.30;;;8.80;1.00;;;;;;5009762;28;20434;-65
2022/10/09 07:14:09;;;;;;;13.60;9.33;;;9.00;1.00;;;;;;5011683;28;20740;-65
2022/10/09 07:16:41;;;;;;;12.90;9.10;;;9.00;1.00;;;;;;5011778;28;20427;-65
2022/10/09 07:19:10;;;;;;;17.20;11.93;;;8.90;1.00;;;;;;5011162;28;20427;-66
2022/10/09 07:21:36;;;;;;;12.80;9.10;;;8.80;1.00;;;;;;5010935;28;20883;-66
2022/10/09 07:24:03;;;;;;;15.67;9.30;;;8.90;1.00;;;;;;5016986;28;20506;-66
2022/10/09 07:26:31;;;;;;;10.17;8.50;;;8.80;1.00;;;;;;5011640;28;20411;-66
2022/10/09 07:28:57;;;;;;;14.20;8.43;;;8.70;1.00;;;;;;5012389;28;20411;-66
2022/10/09 07:31:23;;;;;;;13.70;10.03;;;8.80;1.00;;;;;;5010638;28;20435;-65
2022/10/09 07:33:50;;;;;;;13.47;9.40;;;8.70;1.00;;;;;;5011469;28;20417;-66
2022/10/09 07:36:17;;;;;;;13.13;9.10;;;8.70;1.00;;;;;;5015141;28;20458;-66
2022/10/09 07:38:43;;;;;;;15.97;11.93;;;8.70;1.00;;;;;;5029067;28;20433;-66
2022/10/09 07:41:11;;;;;;;15.23;9.93;;;8.70;1.00;;;;;;5013913;28;20521;-66
2022/10/09 07:43:38;;;;;;;19.00;9.57;;;8.20;1.00;;;;;;5016732;28;20423;-66
2022/10/09 07:46:05;;;;;;;18.10;11.00;;;8.20;1.00;;;;;;5020911;28;20449;-66
2022/10/09 07:48:33;;;;;;;17.00;10.17;;;8.10;1.00;;;;;;5015001;28;20470;-66
2022/10/09 07:51:12;;;;;;;16.20;10.17;;;8.00;1.00;;;;;;5015167;28;20771;-67
2022/10/09 07:53:38;;;;;;;14.67;10.80;;;8.10;1.00;;;;;;5014813;28;20430;-67
2022/10/09 07:56:05;;;;;;;18.53;10.27;;;8.10;1.00;;;;;;5017261;28;20457;-68
2022/10/09 07:58:31;;;;;;;18.03;11.40;;;8.40;1.00;;;;;;5029352;28;20558;-67
2022/10/09 08:01:03;;;;;;;15.67;10.20;;;8.50;1.00;;;;;;5021263;28;20943;-68
2022/10/09 08:03:29;;;;;;;14.20;9.90;;;8.20;1.00;;;;;;5029157;28;20481;-68
2022/10/09 08:05:56;;;;;;;19.27;10.77;;;8.50;1.00;;;;;;5026022;28;20418;-68
2022/10/09 08:08:21;;;;;;;18.90;11.43;;;8.60;1.00;;;;;;5014639;28;20192;-68
2022/10/09 08:10:47;;;;;;;15.87;12.00;;;8.80;1.00;;;;;;5019842;28;20418;-68
2022/10/09 08:13:13;;;;;;;15.53;11.80;;;8.80;1.00;;;;;;5021738;28;20683;-68
2022/10/09 08:15:41;;;;;;;16.57;11.27;;;8.90;1.00;;;;;;5023129;28;20325;-67
2022/10/09 08:18:07;;;;;;;13.80;10.50;;;8.90;1.00;;;;;;5015292;28;20176;-67
2022/10/09 08:20:32;;;;;;;15.73;10.53;;;9.00;1.00;;;;;;5019085;28;20490;-67
2022/10/09 08:22:58;;;;;;;14.90;11.13;;;9.00;1.00;;;;;;5015547;28;20176;-66
2022/10/09 08:25:24;;;;;;;15.07;11.27;;;9.20;1.00;;;;;;5014054;28;20347;-66
2022/10/09 08:27:52;;;;;;;13.80;12.30;;;9.00;1.00;;;;;;5016450;28;20723;-67
2022/10/09 08:30:17;;;;;;;17.10;11.27;;;9.00;1.00;;;;;;5022166;28;20544;-67
2022/10/09 08:32:43;;;;;;;19.33;13.93;;;9.10;1.00;;;;;;5012177;28;20522;-65
2022/10/09 08:35:08;;;;;;;14.80;11.83;;;9.10;1.00;;;;;;5024930;28;20191;-65
2022/10/09 08:37:34;;;;;;;15.93;11.40;;;9.10;1.00;;;;;;5031566;28;20251;-63
2022/10/09 08:40:00;;;;;;;23.83;12.93;;;9.10;1.00;;;;;;5031205;28;20199;-65
2022/10/09 08:42:53;;;;;;;12.97;11.37;;;9.10;1.00;;;;;;5030290;28;20195;-65
2022/10/09 08:45:19;;;;;;;16.20;11.60;;;9.20;1.00;;;;;;5031033;28;20174;-64
2022/10/09 08:47:51;;;;;;;13.93;12.10;;;9.40;1.00;;;;;;5022064;28;20966;-65
2022/10/09 08:50:18;;;;;;;15.57;11.73;;;9.50;1.00;;;;;;5026798;28;20552;-63
2022/10/09 08:52:51;;;;;;;17.47;12.77;;;9.20;1.00;;;;;;5026543;28;20469;-63
2022/10/09 08:55:46;;;;;;;15.87;12.60;;;9.40;1.00;;;;;;5015344;28;20455;-63
2022/10/09 08:58:17;;;;;;;14.83;12.03;;;9.70;1.00;;;;;;5014134;28;20453;-66
2022/10/09 09:00:53;;;;;;;15.70;11.70;;;10.20;1.00;;;;;;5024401;28;20509;-66
2022/10/09 09:03:36;;;;;;;14.60;11.30;;;10.60;1.00;;;;;;5011271;28;20486;-64
2022/10/09 09:06:22;;;;;;;13.63;10.30;;;11.00;99.90;;;;;;5021989;28;20501;-65
2022/10/09 09:09:00;;;;;;;23.23;10.80;;;11.00;99.90;;;;;;4988563;28;20414;-64
2022/10/09 09:11:41;;;;;;;14.53;10.37;;;11.10;99.90;;;;;;5022298;28;20480;-65
2022/10/09 09:14:30;;;;;;;15.83;11.17;;;11.30;99.90;;;;;;5017240;28;21030;-65
2022/10/09 09:17:05;;;;;;;13.50;9.43;;;11.60;1.00;;;;;;5025187;28;20418;-65
2022/10/09 09:19:40;;;;;;;13.33;10.27;;;11.40;1.00;;;;;;5015845;28;21250;-65
2022/10/09 09:22:12;;;;;;;14.70;10.00;;;11.60;1.00;;;;;;5022951;28;20429;-65
2022/10/09 09:24:41;;;;;;;12.37;9.23;;;11.80;1.00;;;;;;5025838;28;20573;-64
2022/10/09 09:27:14;;;;;;;13.43;9.27;;;11.50;1.00;;;;;;5022918;28;20407;-65
2022/10/09 09:29:54;;;;;;;14.17;9.67;;;11.70;1.00;;;;;;5022185;28;20930;-65
2022/10/09 09:32:25;;;;;;;9.87;8.67;;;11.60;1.00;;;;;;5025310;28;20469;-65
2022/10/09 09:34:56;;;;;;;13.77;9.23;;;11.60;1.00;;;;;;5012480;28;20450;-66
2022/10/09 09:37:22;;;;;;;13.23;8.70;;;11.70;1.00;;;;;;5013379;28;20988;-66
2022/10/09 09:39:48;;;;;;;10.93;8.37;;;11.80;1.00;;;;;;5012291;28;20422;-66
2022/10/09 09:42:17;;;;;;;35.90;11.83;;;11.80;1.00;;;;;;5018633;28;20427;-66
2022/10/09 09:44:49;;;;;;;9.67;8.67;;;12.00;99.90;;;;;;5024659;28;20179;-66
2022/10/09 09:47:28;;;;;;;9.47;8.37;;;11.80;1.00;;;;;;5023591;28;20418;-65
2022/10/09 09:49:56;;;;;;;13.77;8.70;;;11.90;1.00;;;;;;5019639;28;20415;-66
2022/10/09 09:52:26;;;;;;;10.17;8.87;;;12.10;1.00;;;;;;5012750;28;20512;-66
2022/10/09 09:54:51;;;;;;;10.80;7.90;;;12.10;1.00;;;;;;5015034;28;20854;-67
2022/10/09 09:57:32;;;;;;;8.60;7.60;;;12.00;1.00;;;;;;5010715;28;20415;-66
2022/10/09 10:00:27;;;;;;;39.07;11.40;;;12.10;1.00;;;;;;5024015;28;20167;-66
2022/10/09 10:03:13;;;;;;;11.73;7.67;;;12.70;99.90;;;;;;5010645;28;20480;-67
2022/10/09 10:05:40;;;;;;;18.67;9.33;;;13.00;1.00;;;;;;5027762;28;20409;-67
2022/10/09 10:08:35;;;;;;;9.90;6.97;;;13.10;99.90;;;;;;5028207;28;20772;-67
2022/10/09 10:11:05;;;;;;;13.80;7.60;;;13.00;1.00;;;;;;5008713;28;20496;-67
2022/10/09 10:13:48;;;;;;;13.83;7.67;;;13.30;1.00;;;;;;5027504;28;20410;-66
2022/10/09 10:16:36;;;;;;;8.93;6.37;;;13.30;1.00;;;;;;5023239;28;20513;-66
2022/10/09 10:19:03;;;;;;;10.90;6.80;;;12.90;1.00;;;;;;5026992;28;20438;-67
2022/10/09 10:21:53;;;;;;;11.30;5.93;;;13.10;1.00;;;;;;5026577;28;20441;-66
2022/10/09 10:24:23;;;;;;;11.20;7.20;;;13.00;99.90;;;;;;5027569;28;20414;-66
2022/10/09 10:26:58;;;;;;;9.97;6.97;;;12.90;99.90;;;;;;5027751;28;20413;-66
2022/10/09 10:29:34;;;;;;;10.73;6.47;;;13.10;1.00;;;;;;5026504;28;20468;-66
2022/10/09 10:32:19;;;;;;;19.13;7.87;;;13.20;1.00;;;;;;5026898;28;20468;-66
2022/10/09 10:34:59;;;;;;;7.87;7.00;;;13.30;1.00;;;;;;5027691;28;20962;-67
2022/10/09 10:37:34;;;;;;;7.70;6.50;;;13.20;1.00;;;;;;5027506;28;20495;-67
2022/10/09 10:40:18;;;;;;;8.50;6.30;;;13.20;1.00;;;;;;5026963;28;20424;-66
2022/10/09 10:42:57;;;;;;;9.13;6.80;;;12.90;99.90;;;;;;5027164;28;20842;-67
2022/10/09 10:45:36;;;;;;;9.10;6.03;;;13.00;99.90;;;;;;5026946;28;20408;-66
2022/10/09 10:48:04;;;;;;;20.40;9.00;;;13.10;99.90;;;;;;5027133;28;20441;-67
2022/10/09 10:50:36;;;;;;;12.00;6.07;;;13.10;1.00;;;;;;5025987;28;20767;-67
2022/10/09 10:53:21;;;;;;;7.07;6.00;;;13.20;99.90;;;;;;5028112;28;20492;-68
2022/10/09 10:56:01;;;;;;;15.13;6.47;;;13.00;99.90;;;;;;5027093;28;20458;-68
2022/10/09 10:58:28;;;;;;;8.03;5.60;;;13.50;1.00;;;;;;5026697;28;20859;-68
2022/10/09 11:01:09;;;;;;;10.70;5.80;;;13.60;1.00;;;;;;5026761;28;20909;-68
2022/10/09 11:03:56;;;;;;;12.13;5.37;;;13.80;99.90;;;;;;5026755;28;20472;-67
2022/10/09 11:06:32;;;;;;;9.40;4.90;;;13.70;99.90;;;;;;5026722;28;20402;-68
2022/10/09 11:09:16;;;;;;;6.90;4.80;;;13.90;99.90;;;;;;5026916;28;20410;-68
2022/10/09 11:11:51;;;;;;;9.47;6.30;;;13.70;99.90;;;;;;5028997;28;20418;-68
2022/10/09 11:14:28;;;;;;;11.00;5.50;;;13.80;99.90;;;;;;5030043;28;20439;-68
2022/10/09 11:17:27;;;;;;;8.13;5.50;;;14.10;51.80;;;;;;5005528;28;20410;-68
2022/10/09 11:20:08;;;;;;;6.57;4.47;;;13.80;1.00;;;;;;5030247;28;20460;-66
2022/10/09 11:23:01;;;;;;;5.77;4.33;;;14.00;1.00;;;;;;5031268;28;20418;-67
2022/10/09 11:25:44;;;;;;;13.70;4.90;;;14.20;1.00;;;;;;5032223;28;20448;-68
2022/10/09 11:28:20;;;;;;;15.60;4.40;;;14.30;1.00;;;;;;5032557;28;20433;-69
2022/10/09 11:30:53;;;;;;;3.57;3.27;;;14.40;1.00;;;;;;5030787;28;20556;-68
2022/10/09 11:33:22;;;;;;;7.10;3.60;;;14.50;99.90;;;;;;5032502;28;20501;-69
2022/10/09 11:35:56;;;;;;;5.00;3.47;;;14.70;99.90;;;;;;5032146;28;20458;-68
2022/10/09 11:38:59;;;;;;;6.23;3.13;;;14.50;1.00;;;;;;5032881;28;20399;-67
2022/10/09 11:41:27;;;;;;;5.03;3.00;;;14.50;1.00;;;;;;5014207;28;20453;-69
2022/10/09 11:44:07;;;;;;;5.97;3.00;;;14.40;1.00;;;;;;5031873;28;20407;-68
2022/10/09 11:46:39;;;;;;;6.30;3.33;;;14.40;1.00;;;;;;5031751;28;20410;-68
2022/10/09 11:49:29;;;;;;;6.60;3.57;;;14.30;1.00;;;;;;5032072;28;20398;-69
2022/10/09 11:52:19;;;;;;;7.50;3.40;;;14.20;1.00;;;;;;5031341;28;20959;-68
2022/10/09 11:54:45;;;;;;;4.20;3.53;;;14.20;1.00;;;;;;5020578;28;20592;-69
2022/10/09 11:57:11;;;;;;;4.90;3.10;;;14.20;1.00;;;;;;5032308;28;20405;-69
2022/10/09 11:59:41;;;;;;;5.87;4.23;;;14.30;1.00;;;;;;5031576;28;20589;-68
2022/10/09 12:02:29;;;;;;;5.47;3.90;;;14.40;1.00;;;;;;5031877;28;20491;-68
2022/10/09 12:04:55;;;;;;;8.73;4.53;;;14.30;1.00;;;;;;5032104;28;20421;-68
2022/10/09 12:07:25;;;;;;;5.63;4.27;;;14.30;1.00;;;;;;5032517;28;20414;-68
2022/10/09 12:10:01;;;;;;;4.63;4.00;;;14.00;1.00;;;;;;5032028;28;20434;-68
2022/10/09 12:12:27;;;;;;;5.27;4.10;;;14.00;1.00;;;;;;5030778;28;20425;-67
2022/10/09 12:14:53;;;;;;;6.13;4.93;;;14.10;1.00;;;;;;5031231;28;20450;-68
2022/10/09 12:17:22;;;;;;;7.27;3.43;;;14.30;1.00;;;;;;5013140;28;20411;-68
2022/10/09 12:19:55;;;;;;;5.77;3.80;;;14.30;1.00;;;;;;5011952;28;20546;-67
2022/10/09 12:22:27;;;;;;;6.97;4.37;;;14.20;1.00;;;;;;5011880;28;20438;-68
2022/10/09 12:24:56;;;;;;;7.67;4.20;;;14.40;1.00;;;;;;5023690;28;20415;-68
2022/10/09 12:27:43;;;;;;;10.13;5.10;;;14.50;1.00;;;;;;5028002;28;20422;-68
2022/10/09 12:30:12;;;;;;;5.10;4.27;;;14.50;1.00;;;;;;5023978;28;20423;-67
2022/10/09 12:32:53;;;;;;;11.10;5.50;;;14.50;1.00;;;;;;5016239;28;20438;-68
2022/10/09 12:35:21;;;;;;;7.67;5.20;;;14.60;1.00;;;;;;5026411;28;20959;-66
2022/10/09 12:37:46;;;;;;;8.67;5.50;;;14.80;1.00;;;;;;5020645;28;20484;-68
2022/10/09 12:40:21;;;;;;;7.33;4.40;;;14.90;1.00;;;;;;5028987;28;20418;-68
2022/10/09 12:42:50;;;;;;;7.67;5.10;;;15.10;1.00;;;;;;5011438;28;20570;-68
2022/10/09 12:45:22;;;;;;;6.27;5.67;;;15.00;1.00;;;;;;5018219;28;20406;-68
2022/10/09 12:47:48;;;;;;;5.40;4.37;;;14.90;1.00;;;;;;5031527;28;20414;-68
2022/10/09 12:50:34;;;;;;;10.87;4.83;;;14.90;1.00;;;;;;5019092;28;20439;-68
2022/10/09 12:53:03;;;;;;;9.80;4.73;;;15.00;1.00;;;;;;5011681;28;20422;-67
2022/10/09 12:55:32;;;;;;;9.83;4.43;;;15.20;1.00;;;;;;5017281;28;20451;-68
2022/10/09 12:58:07;;;;;;;6.30;4.93;;;15.30;1.00;;;;;;5029587;28;20808;-68
2022/10/09 13:00:34;;;;;;;10.40;5.47;;;15.00;1.00;;;;;;5014925;28;20489;-67
2022/10/09 13:03:00;;;;;;;11.33;4.67;;;14.90;1.00;;;;;;4995887;28;20931;-67
2022/10/09 13:05:37;;;;;;;8.97;5.30;;;15.10;1.00;;;;;;5022746;28;20765;-69
2022/10/09 13:08:04;;;;;;;6.10;5.17;;;14.90;1.00;;;;;;5021009;28;20407;-68